sensor_id;sensor_type;location;lat;lon;timestamp;temperature;humidity
36990;DHT22;22898;52.102;5.776;2023-09-19T00:00:23;21.80;99.90
36990;DHT22;22898;52.102;5.776;2023-09-19T00:02:56;21.90;99.90
36990;DHT22;22898;52.102;5.776;2023-09-19T00:05:26;21.70;99.90
36990;DHT22;22898;52.102;5.776;2023-09-19T00:07:53;21.60;99.90
36990;DHT22;22898;52.102;5.776;2023-09-19T00:10:23;21.40;99.90
36990;DHT22;22898;52.102;5.776;2023-09-19T00:12:55;21.10;99.90
36990;DHT22;22898;52.102;5.776;2023-09-19T00:15:30;21.20;99.90
36990;DHT22;22898;52.102;5.776;2023-09-19T00:17:56;21.30;99.90
36990;DHT22;22898;52.102;5.776;2023-09-19T00:20:22;21.60;99.90
36990;DHT22;22898;52.102;5.776;2023-09-19T00:22:51;21.60;99.90
36990;DHT22;22898;52.102;5.776;2023-09-19T00:25:17;21.60;99.90
36990;DHT22;22898;52.102;5.776;2023-09-19T00:27:43;21.70;99.90
36990;DHT22;22898;52.102;5.776;2023-09-19T00:30:11;21.70;99.90
36990;DHT22;22898;52.102;5.776;2023-09-19T00:32:42;21.50;99.90
36990;DHT22;22898;52.102;5.776;2023-09-19T00:35:08;21.50;99.90
36990;DHT22;22898;52.102;5.776;2023-09-19T00:37:39;21.20;99.90
36990;DHT22;22898;52.102;5.776;2023-09-19T00:40:06;21.20;99.90
36990;DHT22;22898;52.102;5.776;2023-09-19T00:42:34;21.40;99.90
36990;DHT22;22898;52.102;5.776;2023-09-19T00:45:03;21.60;99.90
36990;DHT22;22898;52.102;5.776;2023-09-19T00:47:29;21.80;99.90
36990;DHT22;22898;52.102;5.776;2023-09-19T00:49:55;21.80;99.90
36990;DHT22;22898;52.102;5.776;2023-09-19T00:52:21;21.80;99.90
36990;DHT22;22898;52.102;5.776;2023-09-19T00:54:49;21.90;99.90
36990;DHT22;22898;52.102;5.776;2023-09-19T00:57:15;21.80;99.90
36990;DHT22;22898;52.102;5.776;2023-09-19T00:59:45;21.80;99.90
36990;DHT22;22898;52.102;5.776;2023-09-19T01:02:13;21.90;99.90
36990;DHT22;22898;52.102;5.776;2023-09-19T01:04:40;22.00;99.90
36990;DHT22;22898;52.102;5.776;2023-09-19T01:07:06;21.50;99.90
36990;DHT22;22898;52.102;5.776;2023-09-19T01:09:33;21.70;99.90
36990;DHT22;22898;52.102;5.776;2023-09-19T01:12:02;21.90;99.90
36990;DHT22;22898;52.102;5.776;2023-09-19T01:14:43;22.00;99.90
36990;DHT22;22898;52.102;5.776;2023-09-19T01:17:23;22.20;99.90
36990;DHT22;22898;52.102;5.776;2023-09-19T01:20:20;22.10;99.90
36990;DHT22;22898;52.102;5.776;2023-09-19T01:23:06;21.90;99.90
36990;DHT22;22898;52.102;5.776;2023-09-19T01:26:07;21.80;99.90
36990;DHT22;22898;52.102;5.776;2023-09-19T01:31:23;21.80;99.90
36990;DHT22;22898;52.102;5.776;2023-09-19T01:34:02;21.70;99.90
36990;DHT22;22898;52.102;5.776;2023-09-19T01:36:37;21.60;99.90
36990;DHT22;22898;52.102;5.776;2023-09-19T01:39:09;21.60;99.90
36990;DHT22;22898;52.102;5.776;2023-09-19T01:41:47;21.30;99.90
36990;DHT22;22898;52.102;5.776;2023-09-19T01:47:04;21.30;99.90
36990;DHT22;22898;52.102;5.776;2023-09-19T01:49:36;21.40;99.90
36990;DHT22;22898;52.102;5.776;2023-09-19T01:52:10;21.10;99.90
36990;DHT22;22898;52.102;5.776;2023-09-19T01:54:52;21.00;99.90
36990;DHT22;22898;52.102;5.776;2023-09-19T01:57:35;21.30;99.90
36990;DHT22;22898;52.102;5.776;2023-09-19T02:00:10;21.50;99.90
36990;DHT22;22898;52.102;5.776;2023-09-19T02:02:44;21.50;99.90
36990;DHT22;22898;52.102;5.776;2023-09-19T02:05:10;21.40;99.90
36990;DHT22;22898;52.102;5.776;2023-09-19T02:07:40;21.50;99.90
36990;DHT22;22898;52.102;5.776;2023-09-19T02:10:06;21.00;99.90
36990;DHT22;22898;52.102;5.776;2023-09-19T02:12:33;20.90;99.90
36990;DHT22;22898;52.102;5.776;2023-09-19T02:14:58;20.90;99.90
36990;DHT22;22898;52.102;5.776;2023-09-19T02:17:25;20.90;99.90
36990;DHT22;22898;52.102;5.776;2023-09-19T02:19:54;20.30;99.90
36990;DHT22;22898;52.102;5.776;2023-09-19T02:22:23;20.10;99.90
36990;DHT22;22898;52.102;5.776;2023-09-19T02:24:50;20.00;99.90
36990;DHT22;22898;52.102;5.776;2023-09-19T02:27:16;20.20;99.90
36990;DHT22;22898;52.102;5.776;2023-09-19T02:29:43;20.40;99.90
36990;DHT22;22898;52.102;5.776;2023-09-19T02:32:09;20.50;99.90
36990;DHT22;22898;52.102;5.776;2023-09-19T02:34:35;20.20;99.90
36990;DHT22;22898;52.102;5.776;2023-09-19T02:37:07;19.90;99.90
36990;DHT22;22898;52.102;5.776;2023-09-19T02:39:39;20.00;99.90
36990;DHT22;22898;52.102;5.776;2023-09-19T02:42:05;20.20;99.90
36990;DHT22;22898;52.102;5.776;2023-09-19T02:44:30;20.10;99.90
36990;DHT22;22898;52.102;5.776;2023-09-19T02:46:56;20.00;99.90
36990;DHT22;22898;52.102;5.776;2023-09-19T02:49:22;19.90;99.90
36990;DHT22;22898;52.102;5.776;2023-09-19T02:51:48;19.90;99.90
36990;DHT22;22898;52.102;5.776;2023-09-19T02:54:14;19.80;99.90
36990;DHT22;22898;52.102;5.776;2023-09-19T02:56:41;20.00;99.90
36990;DHT22;22898;52.102;5.776;2023-09-19T02:59:06;19.90;99.90
36990;DHT22;22898;52.102;5.776;2023-09-19T03:01:32;19.50;99.90
36990;DHT22;22898;52.102;5.776;2023-09-19T03:03:59;19.10;99.90
36990;DHT22;22898;52.102;5.776;2023-09-19T03:06:24;19.10;99.90
36990;DHT22;22898;52.102;5.776;2023-09-19T03:08:50;19.10;99.90
36990;DHT22;22898;52.102;5.776;2023-09-19T03:11:17;19.10;99.90
36990;DHT22;22898;52.102;5.776;2023-09-19T03:13:50;19.30;99.90
36990;DHT22;22898;52.102;5.776;2023-09-19T03:16:16;19.20;99.90
36990;DHT22;22898;52.102;5.776;2023-09-19T03:18:41;19.30;99.90
36990;DHT22;22898;52.102;5.776;2023-09-19T03:21:07;19.30;99.90
36990;DHT22;22898;52.102;5.776;2023-09-19T03:23:33;19.30;99.90
36990;DHT22;22898;52.102;5.776;2023-09-19T03:25:58;19.10;99.90
36990;DHT22;22898;52.102;5.776;2023-09-19T03:28:24;19.20;99.90
36990;DHT22;22898;52.102;5.776;2023-09-19T03:31:05;19.30;99.90
36990;DHT22;22898;52.102;5.776;2023-09-19T03:33:31;19.40;99.90
36990;DHT22;22898;52.102;5.776;2023-09-19T03:35:58;19.20;99.90
36990;DHT22;22898;52.102;5.776;2023-09-19T03:38:24;19.00;99.90
36990;DHT22;22898;52.102;5.776;2023-09-19T03:40:50;19.10;99.90
36990;DHT22;22898;52.102;5.776;2023-09-19T03:43:16;19.20;99.90
36990;DHT22;22898;52.102;5.776;2023-09-19T03:45:42;19.10;99.90
36990;DHT22;22898;52.102;5.776;2023-09-19T03:48:09;19.10;99.90
36990;DHT22;22898;52.102;5.776;2023-09-19T03:50:35;19.10;99.90
36990;DHT22;22898;52.102;5.776;2023-09-19T03:53:01;19.10;99.90
36990;DHT22;22898;52.102;5.776;2023-09-19T03:55:27;19.00;99.90
36990;DHT22;22898;52.102;5.776;2023-09-19T03:57:52;19.00;99.90
36990;DHT22;22898;52.102;5.776;2023-09-19T04:00:18;19.10;99.90
36990;DHT22;22898;52.102;5.776;2023-09-19T04:02:47;19.10;99.90
36990;DHT22;22898;52.102;5.776;2023-09-19T04:05:13;19.10;99.90
36990;DHT22;22898;52.102;5.776;2023-09-19T04:07:38;18.80;99.90
36990;DHT22;22898;52.102;5.776;2023-09-19T04:10:04;18.70;99.90
36990;DHT22;22898;52.102;5.776;2023-09-19T04:12:31;18.80;99.90
36990;DHT22;22898;52.102;5.776;2023-09-19T04:14:57;19.10;99.90
36990;DHT22;22898;52.102;5.776;2023-09-19T04:17:23;18.70;99.90
36990;DHT22;22898;52.102;5.776;2023-09-19T04:19:49;18.40;99.90
36990;DHT22;22898;52.102;5.776;2023-09-19T04:22:14;18.50;99.90
36990;DHT22;22898;52.102;5.776;2023-09-19T04:24:40;18.60;99.90
36990;DHT22;22898;52.102;5.776;2023-09-19T04:27:05;18.80;99.90
36990;DHT22;22898;52.102;5.776;2023-09-19T04:29:32;18.80;99.90
36990;DHT22;22898;52.102;5.776;2023-09-19T04:31:58;18.80;99.90
36990;DHT22;22898;52.102;5.776;2023-09-19T04:34:23;18.90;99.90
36990;DHT22;22898;52.102;5.776;2023-09-19T04:36:50;18.90;99.90
36990;DHT22;22898;52.102;5.776;2023-09-19T04:39:15;18.70;99.90
36990;DHT22;22898;52.102;5.776;2023-09-19T04:41:42;18.80;99.90
36990;DHT22;22898;52.102;5.776;2023-09-19T04:44:07;19.20;99.90
36990;DHT22;22898;52.102;5.776;2023-09-19T04:46:34;19.00;99.90
36990;DHT22;22898;52.102;5.776;2023-09-19T04:49:00;18.90;99.90
36990;DHT22;22898;52.102;5.776;2023-09-19T04:51:26;18.70;99.90
36990;DHT22;22898;52.102;5.776;2023-09-19T04:53:54;18.70;99.90
36990;DHT22;22898;52.102;5.776;2023-09-19T04:56:20;18.60;99.90
36990;DHT22;22898;52.102;5.776;2023-09-19T04:58:46;18.40;99.90
36990;DHT22;22898;52.102;5.776;2023-09-19T05:01:11;18.60;99.90
36990;DHT22;22898;52.102;5.776;2023-09-19T05:03:39;18.50;99.90
36990;DHT22;22898;52.102;5.776;2023-09-19T05:06:05;18.70;99.90
36990;DHT22;22898;52.102;5.776;2023-09-19T05:08:30;18.80;99.90
36990;DHT22;22898;52.102;5.776;2023-09-19T05:10:56;18.90;99.90
36990;DHT22;22898;52.102;5.776;2023-09-19T05:13:22;19.00;99.90
36990;DHT22;22898;52.102;5.776;2023-09-19T05:15:49;19.00;99.90
36990;DHT22;22898;52.102;5.776;2023-09-19T05:18:17;19.00;99.90
36990;DHT22;22898;52.102;5.776;2023-09-19T05:20:43;18.90;99.90
36990;DHT22;22898;52.102;5.776;2023-09-19T05:23:09;18.90;99.90
36990;DHT22;22898;52.102;5.776;2023-09-19T05:25:37;18.60;99.90
36990;DHT22;22898;52.102;5.776;2023-09-19T05:28:05;18.50;99.90
36990;DHT22;22898;52.102;5.776;2023-09-19T05:30:31;18.60;99.90
36990;DHT22;22898;52.102;5.776;2023-09-19T05:32:57;18.60;99.90
36990;DHT22;22898;52.102;5.776;2023-09-19T05:35:24;18.40;99.90
36990;DHT22;22898;52.102;5.776;2023-09-19T05:37:54;18.40;99.90
36990;DHT22;22898;52.102;5.776;2023-09-19T05:40:20;18.30;99.90
36990;DHT22;22898;52.102;5.776;2023-09-19T05:42:47;18.00;99.90
36990;DHT22;22898;52.102;5.776;2023-09-19T05:45:13;17.90;99.90
36990;DHT22;22898;52.102;5.776;2023-09-19T05:47:42;18.10;99.90
36990;DHT22;22898;52.102;5.776;2023-09-19T05:50:10;18.30;99.90
36990;DHT22;22898;52.102;5.776;2023-09-19T05:52:36;18.30;99.90
36990;DHT22;22898;52.102;5.776;2023-09-19T05:55:06;18.80;99.90
36990;DHT22;22898;52.102;5.776;2023-09-19T05:57:33;18.70;99.90
36990;DHT22;22898;52.102;5.776;2023-09-19T05:59:59;18.80;99.90
36990;DHT22;22898;52.102;5.776;2023-09-19T06:02:25;18.90;99.90
36990;DHT22;22898;52.102;5.776;2023-09-19T06:04:55;18.60;99.90
36990;DHT22;22898;52.102;5.776;2023-09-19T06:07:24;18.60;99.90
36990;DHT22;22898;52.102;5.776;2023-09-19T06:09:52;18.80;99.90
36990;DHT22;22898;52.102;5.776;2023-09-19T06:12:19;18.80;99.90
36990;DHT22;22898;52.102;5.776;2023-09-19T06:14:44;18.40;99.90
36990;DHT22;22898;52.102;5.776;2023-09-19T06:17:10;18.40;99.90
36990;DHT22;22898;52.102;5.776;2023-09-19T06:19:36;18.70;99.90
36990;DHT22;22898;52.102;5.776;2023-09-19T06:22:05;18.80;99.90
36990;DHT22;22898;52.102;5.776;2023-09-19T06:24:30;18.90;99.90
36990;DHT22;22898;52.102;5.776;2023-09-19T06:26:56;19.00;99.90
36990;DHT22;22898;52.102;5.776;2023-09-19T06:29:21;18.70;99.90
36990;DHT22;22898;52.102;5.776;2023-09-19T06:31:48;19.00;99.90
36990;DHT22;22898;52.102;5.776;2023-09-19T06:34:14;19.20;99.90
36990;DHT22;22898;52.102;5.776;2023-09-19T06:36:40;19.10;99.90
36990;DHT22;22898;52.102;5.776;2023-09-19T06:39:06;19.00;99.90
36990;DHT22;22898;52.102;5.776;2023-09-19T06:41:39;18.80;99.90
36990;DHT22;22898;52.102;5.776;2023-09-19T06:44:05;19.00;99.90
36990;DHT22;22898;52.102;5.776;2023-09-19T06:46:31;19.10;99.90
36990;DHT22;22898;52.102;5.776;2023-09-19T06:49:00;18.90;99.90
36990;DHT22;22898;52.102;5.776;2023-09-19T06:51:26;18.60;99.90
36990;DHT22;22898;52.102;5.776;2023-09-19T06:53:51;18.80;99.90
36990;DHT22;22898;52.102;5.776;2023-09-19T06:56:19;19.20;99.90
36990;DHT22;22898;52.102;5.776;2023-09-19T06:58:50;19.60;99.90
36990;DHT22;22898;52.102;5.776;2023-09-19T07:01:16;19.60;99.90
36990;DHT22;22898;52.102;5.776;2023-09-19T07:03:43;19.30;99.90
36990;DHT22;22898;52.102;5.776;2023-09-19T07:06:11;19.80;99.90
36990;DHT22;22898;52.102;5.776;2023-09-19T07:08:37;20.00;99.90
36990;DHT22;22898;52.102;5.776;2023-09-19T07:11:04;20.10;99.90
36990;DHT22;22898;52.102;5.776;2023-09-19T07:13:31;20.00;99.90
36990;DHT22;22898;52.102;5.776;2023-09-19T07:15:58;19.90;99.90
36990;DHT22;22898;52.102;5.776;2023-09-19T07:18:25;19.80;99.90
36990;DHT22;22898;52.102;5.776;2023-09-19T07:20:51;20.00;99.90
36990;DHT22;22898;52.102;5.776;2023-09-19T07:23:21;19.90;99.90
36990;DHT22;22898;52.102;5.776;2023-09-19T07:25:48;19.60;99.90
36990;DHT22;22898;52.102;5.776;2023-09-19T07:28:15;19.70;99.90
36990;DHT22;22898;52.102;5.776;2023-09-19T07:30:40;19.50;99.90
36990;DHT22;22898;52.102;5.776;2023-09-19T07:33:07;19.60;99.90
36990;DHT22;22898;52.102;5.776;2023-09-19T07:35:33;19.80;99.90
36990;DHT22;22898;52.102;5.776;2023-09-19T07:37:59;19.70;99.90
36990;DHT22;22898;52.102;5.776;2023-09-19T07:40:27;19.60;99.90
36990;DHT22;22898;52.102;5.776;2023-09-19T07:42:57;19.20;99.90
36990;DHT22;22898;52.102;5.776;2023-09-19T07:45:32;19.70;99.90
36990;DHT22;22898;52.102;5.776;2023-09-19T07:47:59;19.90;99.90
36990;DHT22;22898;52.102;5.776;2023-09-19T07:50:30;19.60;99.90
36990;DHT22;22898;52.102;5.776;2023-09-19T07:52:55;19.80;99.90
36990;DHT22;22898;52.102;5.776;2023-09-19T07:55:22;19.60;99.90
36990;DHT22;22898;52.102;5.776;2023-09-19T07:57:52;19.60;99.90
36990;DHT22;22898;52.102;5.776;2023-09-19T08:00:18;19.60;99.90
36990;DHT22;22898;52.102;5.776;2023-09-19T08:02:44;19.60;99.90
36990;DHT22;22898;52.102;5.776;2023-09-19T08:05:11;19.50;99.90
36990;DHT22;22898;52.102;5.776;2023-09-19T08:07:43;19.90;99.90
36990;DHT22;22898;52.102;5.776;2023-09-19T08:10:10;20.00;99.90
36990;DHT22;22898;52.102;5.776;2023-09-19T08:12:41;19.70;99.90
36990;DHT22;22898;52.102;5.776;2023-09-19T08:15:15;19.90;99.90
36990;DHT22;22898;52.102;5.776;2023-09-19T08:17:41;20.00;99.90
36990;DHT22;22898;52.102;5.776;2023-09-19T08:20:08;19.80;99.90
36990;DHT22;22898;52.102;5.776;2023-09-19T08:22:42;19.50;99.90
36990;DHT22;22898;52.102;5.776;2023-09-19T08:25:09;19.70;99.90
36990;DHT22;22898;52.102;5.776;2023-09-19T08:27:34;20.00;99.90
36990;DHT22;22898;52.102;5.776;2023-09-19T08:30:01;20.20;99.90
36990;DHT22;22898;52.102;5.776;2023-09-19T08:32:29;20.40;99.90
36990;DHT22;22898;52.102;5.776;2023-09-19T08:34:54;20.60;99.90
36990;DHT22;22898;52.102;5.776;2023-09-19T08:37:20;20.40;99.90
36990;DHT22;22898;52.102;5.776;2023-09-19T08:39:46;20.30;99.90
36990;DHT22;22898;52.102;5.776;2023-09-19T08:42:12;20.70;99.90
36990;DHT22;22898;52.102;5.776;2023-09-19T08:44:38;20.50;99.90
36990;DHT22;22898;52.102;5.776;2023-09-19T08:47:15;20.50;99.90
36990;DHT22;22898;52.102;5.776;2023-09-19T08:52:22;20.30;99.90
36990;DHT22;22898;52.102;5.776;2023-09-19T08:54:52;20.70;99.90
36990;DHT22;22898;52.102;5.776;2023-09-19T08:57:21;20.60;99.90
36990;DHT22;22898;52.102;5.776;2023-09-19T08:59:48;20.80;99.90
36990;DHT22;22898;52.102;5.776;2023-09-19T09:02:15;21.50;99.90
36990;DHT22;22898;52.102;5.776;2023-09-19T09:04:43;21.90;99.90
36990;DHT22;22898;52.102;5.776;2023-09-19T09:07:13;22.00;99.90
36990;DHT22;22898;52.102;5.776;2023-09-19T09:09:39;21.50;99.90
36990;DHT22;22898;52.102;5.776;2023-09-19T09:12:10;21.40;99.90
36990;DHT22;22898;52.102;5.776;2023-09-19T09:14:38;21.50;99.90
36990;DHT22;22898;52.102;5.776;2023-09-19T09:17:03;21.60;99.90
36990;DHT22;22898;52.102;5.776;2023-09-19T09:19:30;21.40;99.90
36990;DHT22;22898;52.102;5.776;2023-09-19T09:22:08;21.20;99.90
36990;DHT22;22898;52.102;5.776;2023-09-19T09:24:34;21.00;99.90
36990;DHT22;22898;52.102;5.776;2023-09-19T09:27:04;21.60;99.90
36990;DHT22;22898;52.102;5.776;2023-09-19T09:29:48;22.00;99.90
36990;DHT22;22898;52.102;5.776;2023-09-19T09:32:27;21.80;99.90
36990;DHT22;22898;52.102;5.776;2023-09-19T09:34:56;21.60;99.90
36990;DHT22;22898;52.102;5.776;2023-09-19T09:37:22;22.10;99.90
36990;DHT22;22898;52.102;5.776;2023-09-19T09:39:55;22.10;99.90
36990;DHT22;22898;52.102;5.776;2023-09-19T09:45:20;22.70;99.90
36990;DHT22;22898;52.102;5.776;2023-09-19T09:47:54;22.80;99.60
36990;DHT22;22898;52.102;5.776;2023-09-19T09:50:29;22.80;98.90
36990;DHT22;22898;52.102;5.776;2023-09-19T09:53:01;21.60;99.90
36990;DHT22;22898;52.102;5.776;2023-09-19T09:56:05;21.60;99.90
36990;DHT22;22898;52.102;5.776;2023-09-19T09:58:53;21.70;99.90
36990;DHT22;22898;52.102;5.776;2023-09-19T10:01:21;21.70;99.90
36990;DHT22;22898;52.102;5.776;2023-09-19T10:03:57;22.10;99.80
36990;DHT22;22898;52.102;5.776;2023-09-19T10:06:23;22.30;99.90
36990;DHT22;22898;52.102;5.776;2023-09-19T10:09:07;22.20;99.90
36990;DHT22;22898;52.102;5.776;2023-09-19T10:11:47;22.00;99.90
36990;DHT22;22898;52.102;5.776;2023-09-19T10:14:25;21.70;99.90
36990;DHT22;22898;52.102;5.776;2023-09-19T10:16:56;22.00;99.90
36990;DHT22;22898;52.102;5.776;2023-09-19T10:22:17;22.40;99.40
36990;DHT22;22898;52.102;5.776;2023-09-19T10:24:49;22.30;99.90
36990;DHT22;22898;52.102;5.776;2023-09-19T10:27:18;22.50;99.90
36990;DHT22;22898;52.102;5.776;2023-09-19T10:29:45;22.40;99.80
36990;DHT22;22898;52.102;5.776;2023-09-19T10:32:15;22.30;99.90
36990;DHT22;22898;52.102;5.776;2023-09-19T10:34:48;22.00;99.90
36990;DHT22;22898;52.102;5.776;2023-09-19T10:37:16;22.40;99.90
36990;DHT22;22898;52.102;5.776;2023-09-19T10:39:46;22.80;99.10
36990;DHT22;22898;52.102;5.776;2023-09-19T10:42:15;22.80;98.80
36990;DHT22;22898;52.102;5.776;2023-09-19T10:44:42;22.60;99.10
36990;DHT22;22898;52.102;5.776;2023-09-19T10:47:10;22.00;99.90
36990;DHT22;22898;52.102;5.776;2023-09-19T10:49:46;22.20;99.90
36990;DHT22;22898;52.102;5.776;2023-09-19T10:52:14;21.80;99.90
36990;DHT22;22898;52.102;5.776;2023-09-19T10:54:48;21.70;99.90
36990;DHT22;22898;52.102;5.776;2023-09-19T10:57:22;21.70;99.90
36990;DHT22;22898;52.102;5.776;2023-09-19T11:00:08;22.00;99.90
36990;DHT22;22898;52.102;5.776;2023-09-19T11:06:03;21.80;99.90
36990;DHT22;22898;52.102;5.776;2023-09-19T11:11:46;22.00;99.90
36990;DHT22;22898;52.102;5.776;2023-09-19T11:14:28;22.30;99.90
36990;DHT22;22898;52.102;5.776;2023-09-19T11:30:49;23.10;99.40
36990;DHT22;22898;52.102;5.776;2023-09-19T11:33:25;23.10;98.90
36990;DHT22;22898;52.102;5.776;2023-09-19T11:36:06;22.80;99.40
36990;DHT22;22898;52.102;5.776;2023-09-19T11:46:30;23.10;98.80
36990;DHT22;22898;52.102;5.776;2023-09-19T11:49:05;23.20;98.90
36990;DHT22;22898;52.102;5.776;2023-09-19T11:51:51;22.90;99.20
36990;DHT22;22898;52.102;5.776;2023-09-19T11:54:17;23.20;98.00
36990;DHT22;22898;52.102;5.776;2023-09-19T11:56:55;23.20;99.00
36990;DHT22;22898;52.102;5.776;2023-09-19T11:59:21;23.90;96.70
36990;DHT22;22898;52.102;5.776;2023-09-19T12:01:52;23.50;97.70
36990;DHT22;22898;52.102;5.776;2023-09-19T12:07:14;23.30;97.80
36990;DHT22;22898;52.102;5.776;2023-09-19T12:09:44;23.30;97.90
36990;DHT22;22898;52.102;5.776;2023-09-19T12:12:19;23.10;98.20
36990;DHT22;22898;52.102;5.776;2023-09-19T12:14:48;23.30;98.10
36990;DHT22;22898;52.102;5.776;2023-09-19T12:17:14;23.90;97.40
36990;DHT22;22898;52.102;5.776;2023-09-19T12:19:50;24.20;96.70
36990;DHT22;22898;52.102;5.776;2023-09-19T12:22:16;24.00;96.80
36990;DHT22;22898;52.102;5.776;2023-09-19T12:24:44;23.80;97.30
36990;DHT22;22898;52.102;5.776;2023-09-19T12:27:10;24.10;97.00
36990;DHT22;22898;52.102;5.776;2023-09-19T12:29:47;24.00;96.80
36990;DHT22;22898;52.102;5.776;2023-09-19T12:32:16;23.90;96.30
36990;DHT22;22898;52.102;5.776;2023-09-19T12:34:50;23.50;97.00
36990;DHT22;22898;52.102;5.776;2023-09-19T12:37:17;23.20;97.00
36990;DHT22;22898;52.102;5.776;2023-09-19T12:39:48;23.10;97.40
36990;DHT22;22898;52.102;5.776;2023-09-19T12:42:16;23.10;97.10
36990;DHT22;22898;52.102;5.776;2023-09-19T12:44:43;22.90;97.40
36990;DHT22;22898;52.102;5.776;2023-09-19T12:47:15;23.20;97.00
36990;DHT22;22898;52.102;5.776;2023-09-19T12:50:06;23.00;97.70
36990;DHT22;22898;52.102;5.776;2023-09-19T12:52:52;23.10;98.00
36990;DHT22;22898;52.102;5.776;2023-09-19T12:55:28;23.10;97.60
36990;DHT22;22898;52.102;5.776;2023-09-19T13:00:40;22.90;97.70
36990;DHT22;22898;52.102;5.776;2023-09-19T13:03:15;23.00;97.80
36990;DHT22;22898;52.102;5.776;2023-09-19T13:08:28;23.60;97.10
36990;DHT22;22898;52.102;5.776;2023-09-19T13:11:17;23.80;96.80
36990;DHT22;22898;52.102;5.776;2023-09-19T13:16:29;23.10;98.10
36990;DHT22;22898;52.102;5.776;2023-09-19T13:18:55;23.50;97.50
36990;DHT22;22898;52.102;5.776;2023-09-19T13:21:31;23.40;97.60
36990;DHT22;22898;52.102;5.776;2023-09-19T13:24:18;23.10;98.30
36990;DHT22;22898;52.102;5.776;2023-09-19T13:26:44;23.20;98.10
36990;DHT22;22898;52.102;5.776;2023-09-19T13:29:11;23.20;98.20
36990;DHT22;22898;52.102;5.776;2023-09-19T13:31:37;23.20;98.10
36990;DHT22;22898;52.102;5.776;2023-09-19T13:34:07;23.30;97.90
36990;DHT22;22898;52.102;5.776;2023-09-19T13:36:32;23.30;98.40
36990;DHT22;22898;52.102;5.776;2023-09-19T13:38:59;23.80;97.40
36990;DHT22;22898;52.102;5.776;2023-09-19T13:41:25;23.90;96.80
36990;DHT22;22898;52.102;5.776;2023-09-19T13:43:51;23.80;97.70
36990;DHT22;22898;52.102;5.776;2023-09-19T13:46:17;23.90;97.20
36990;DHT22;22898;52.102;5.776;2023-09-19T13:48:50;23.20;97.80
36990;DHT22;22898;52.102;5.776;2023-09-19T13:51:17;22.90;98.30
36990;DHT22;22898;52.102;5.776;2023-09-19T13:53:44;23.20;98.60
36990;DHT22;22898;52.102;5.776;2023-09-19T13:56:10;23.20;98.10
36990;DHT22;22898;52.102;5.776;2023-09-19T13:58:39;23.40;98.00
36990;DHT22;22898;52.102;5.776;2023-09-19T14:01:07;23.60;97.90
36990;DHT22;22898;52.102;5.776;2023-09-19T14:03:38;23.50;98.10
36990;DHT22;22898;52.102;5.776;2023-09-19T14:06:04;23.70;97.80
36990;DHT22;22898;52.102;5.776;2023-09-19T14:08:29;23.60;97.80
36990;DHT22;22898;52.102;5.776;2023-09-19T14:10:55;23.60;97.80
36990;DHT22;22898;52.102;5.776;2023-09-19T14:13:21;23.50;98.30
36990;DHT22;22898;52.102;5.776;2023-09-19T14:15:47;23.30;97.90
36990;DHT22;22898;52.102;5.776;2023-09-19T14:18:12;23.20;98.10
36990;DHT22;22898;52.102;5.776;2023-09-19T14:20:38;23.20;98.50
36990;DHT22;22898;52.102;5.776;2023-09-19T14:23:05;23.20;98.40
36990;DHT22;22898;52.102;5.776;2023-09-19T14:25:34;23.20;98.70
36990;DHT22;22898;52.102;5.776;2023-09-19T14:28:00;23.80;97.80
36990;DHT22;22898;52.102;5.776;2023-09-19T14:30:25;23.90;97.50
36990;DHT22;22898;52.102;5.776;2023-09-19T14:32:51;24.20;97.50
36990;DHT22;22898;52.102;5.776;2023-09-19T14:35:17;24.30;97.00
36990;DHT22;22898;52.102;5.776;2023-09-19T14:37:42;24.20;97.10
36990;DHT22;22898;52.102;5.776;2023-09-19T14:40:09;23.70;97.40
36990;DHT22;22898;52.102;5.776;2023-09-19T14:42:38;23.70;97.50
36990;DHT22;22898;52.102;5.776;2023-09-19T14:45:04;23.70;97.60
36990;DHT22;22898;52.102;5.776;2023-09-19T14:47:30;23.50;97.50
36990;DHT22;22898;52.102;5.776;2023-09-19T14:50:02;23.90;97.50
36990;DHT22;22898;52.102;5.776;2023-09-19T14:52:32;24.00;97.10
36990;DHT22;22898;52.102;5.776;2023-09-19T14:54:57;23.80;97.30
36990;DHT22;22898;52.102;5.776;2023-09-19T14:57:23;23.80;97.30
36990;DHT22;22898;52.102;5.776;2023-09-19T14:59:50;23.90;97.00
36990;DHT22;22898;52.102;5.776;2023-09-19T15:02:16;23.70;97.50
36990;DHT22;22898;52.102;5.776;2023-09-19T15:04:42;23.80;97.20
36990;DHT22;22898;52.102;5.776;2023-09-19T15:07:13;23.90;97.10
36990;DHT22;22898;52.102;5.776;2023-09-19T15:09:41;23.40;97.90
36990;DHT22;22898;52.102;5.776;2023-09-19T15:12:06;23.50;97.60
36990;DHT22;22898;52.102;5.776;2023-09-19T15:14:32;23.30;97.90
36990;DHT22;22898;52.102;5.776;2023-09-19T15:16:57;23.30;98.00
36990;DHT22;22898;52.102;5.776;2023-09-19T15:19:23;23.20;98.20
36990;DHT22;22898;52.102;5.776;2023-09-19T15:21:49;23.20;98.30
36990;DHT22;22898;52.102;5.776;2023-09-19T15:24:14;23.30;98.20
36990;DHT22;22898;52.102;5.776;2023-09-19T15:26:42;23.60;97.90
36990;DHT22;22898;52.102;5.776;2023-09-19T15:29:09;23.40;98.00
36990;DHT22;22898;52.102;5.776;2023-09-19T15:31:35;22.90;98.40
36990;DHT22;22898;52.102;5.776;2023-09-19T15:34:02;23.10;98.40
36990;DHT22;22898;52.102;5.776;2023-09-19T15:36:29;23.20;98.40
36990;DHT22;22898;52.102;5.776;2023-09-19T15:39:02;23.40;97.90
36990;DHT22;22898;52.102;5.776;2023-09-19T15:41:32;23.60;97.80
36990;DHT22;22898;52.102;5.776;2023-09-19T15:43:58;23.70;97.90
36990;DHT22;22898;52.102;5.776;2023-09-19T15:46:29;24.10;97.20
36990;DHT22;22898;52.102;5.776;2023-09-19T15:48:56;23.90;97.30
36990;DHT22;22898;52.102;5.776;2023-09-19T15:51:22;23.80;98.00
36990;DHT22;22898;52.102;5.776;2023-09-19T15:53:49;23.90;97.50
36990;DHT22;22898;52.102;5.776;2023-09-19T15:56:16;23.70;97.80
36990;DHT22;22898;52.102;5.776;2023-09-19T15:58:46;23.50;98.50
36990;DHT22;22898;52.102;5.776;2023-09-19T16:01:12;22.70;99.90
36990;DHT22;22898;52.102;5.776;2023-09-19T16:03:40;22.20;99.90
36990;DHT22;22898;52.102;5.776;2023-09-19T16:06:13;22.00;99.90
36990;DHT22;22898;52.102;5.776;2023-09-19T16:08:44;22.20;99.90
36990;DHT22;22898;52.102;5.776;2023-09-19T16:11:11;22.30;99.90
36990;DHT22;22898;52.102;5.776;2023-09-19T16:13:41;22.20;99.90
36990;DHT22;22898;52.102;5.776;2023-09-19T16:16:10;22.40;99.90
36990;DHT22;22898;52.102;5.776;2023-09-19T16:18:59;22.50;99.90
36990;DHT22;22898;52.102;5.776;2023-09-19T16:21:28;22.40;99.90
36990;DHT22;22898;52.102;5.776;2023-09-19T16:23:55;22.20;99.90
36990;DHT22;22898;52.102;5.776;2023-09-19T16:26:22;22.30;99.90
36990;DHT22;22898;52.102;5.776;2023-09-19T16:28:50;22.30;99.90
36990;DHT22;22898;52.102;5.776;2023-09-19T16:31:16;22.60;99.90
36990;DHT22;22898;52.102;5.776;2023-09-19T16:33:44;22.40;99.90